createdAt,value
2018-07-25T00:02:20.527Z,98.00
2018-07-25T00:04:49.776Z,97.72
2018-07-25T00:07:19.014Z,97.72
2018-07-25T00:09:48.242Z,97.84
2018-07-25T00:12:17.493Z,97.95
2018-07-25T00:14:46.764Z,98.07
2018-07-25T00:17:16.007Z,97.88
2018-07-25T00:19:45.249Z,97.55
2018-07-25T00:22:14.488Z,97.88
2018-07-25T00:24:43.774Z,98.27
2018-07-25T00:27:12.998Z,98.08
2018-07-25T00:29:42.254Z,97.83
2018-07-25T00:32:11.634Z,98.01
2018-07-25T00:34:40.887Z,98.29
2018-07-25T00:37:10.096Z,97.84
2018-07-25T00:39:39.347Z,98.21
2018-07-25T00:42:08.644Z,97.64
2018-07-25T00:44:37.925Z,97.07
2018-07-25T00:47:07.155Z,97.46
2018-07-25T00:49:36.398Z,97.88
2018-07-25T00:52:05.668Z,98.56
2018-07-25T00:54:34.904Z,98.32
2018-07-25T00:57:04.167Z,97.75
2018-07-25T00:59:33.416Z,97.67
2018-07-25T01:02:02.700Z,96.96
2018-07-25T01:04:31.941Z,97.84
2018-07-25T01:07:01.177Z,98.51
2018-07-25T01:09:30.430Z,98.90
2018-07-25T01:11:59.674Z,98.77
2018-07-25T01:14:28.950Z,98.61
2018-07-25T01:16:58.255Z,98.78
2018-07-25T01:19:27.482Z,98.54
2018-07-25T01:21:56.708Z,98.18
2018-07-25T01:24:25.967Z,97.87
2018-07-25T01:26:55.183Z,97.82
2018-07-25T01:29:24.412Z,98.44
2018-07-25T01:31:53.680Z,99.03
2018-07-25T02:02:42.120Z,99.09
2018-07-25T02:05:11.410Z,98.47
2018-07-25T02:07:40.656Z,98.57
2018-07-25T02:10:09.995Z,98.75
2018-07-25T02:12:40.470Z,98.43
2018-07-25T02:15:09.699Z,98.66
2018-07-25T02:17:38.947Z,99.37
2018-07-25T02:20:08.202Z,99.42
2018-07-25T02:22:37.473Z,99.43
2018-07-25T02:25:06.708Z,100.00
2018-07-25T02:27:35.956Z,99.80
2018-07-25T02:30:05.790Z,99.83
2018-07-25T02:32:35.028Z,99.57
2018-07-25T02:35:04.287Z,99.85
2018-07-25T02:37:33.553Z,99.75
2018-07-25T02:40:02.828Z,99.92
2018-07-25T02:42:32.108Z,100.00
2018-07-25T02:45:01.320Z,99.57
2018-07-25T02:47:30.587Z,100.00
2018-07-25T02:49:59.822Z,99.81
2018-07-25T02:52:29.049Z,99.73
2018-07-25T02:54:58.257Z,99.86
2018-07-25T02:57:27.511Z,99.95
2018-07-25T02:59:56.926Z,99.73
2018-07-25T03:02:26.143Z,99.90
2018-07-25T03:04:55.370Z,99.89
2018-07-25T03:07:24.632Z,99.68
2018-07-25T03:09:53.868Z,99.62
2018-07-25T03:12:23.145Z,99.70
2018-07-25T03:14:52.435Z,99.72
2018-07-25T03:17:21.661Z,98.99
2018-07-25T03:19:50.917Z,99.08
2018-07-25T03:22:20.172Z,99.41
2018-07-25T03:24:50.691Z,98.81
2018-07-25T03:27:19.926Z,99.38
2018-07-25T03:29:49.236Z,99.41
2018-07-25T03:32:18.501Z,99.59
2018-07-25T03:34:47.730Z,99.38
2018-07-25T03:37:16.970Z,99.68
2018-07-25T03:39:46.202Z,99.87
2018-07-25T03:42:15.477Z,99.79
2018-07-25T03:44:44.687Z,99.64
2018-07-25T03:47:13.946Z,99.71
2018-07-25T03:49:43.170Z,99.47
2018-07-25T03:52:12.383Z,99.03
2018-07-25T03:54:41.654Z,98.14
2018-07-25T03:57:10.920Z,98.69
2018-07-25T03:59:40.187Z,99.05
2018-07-25T04:02:09.442Z,98.86
2018-07-25T04:04:38.703Z,99.17
2018-07-25T04:07:07.946Z,99.11
2018-07-25T04:09:37.189Z,98.66
2018-07-25T04:12:06.676Z,98.37
2018-07-25T04:14:35.908Z,98.55
2018-07-25T04:17:05.188Z,98.03
2018-07-25T04:19:34.433Z,97.99
2018-07-25T04:22:03.675Z,97.50
2018-07-25T04:24:34.224Z,97.63
2018-07-25T04:27:03.497Z,97.48
2018-07-25T04:29:32.730Z,97.53
2018-07-25T04:32:01.982Z,97.16
2018-07-25T04:34:31.246Z,96.68
2018-07-25T04:37:00.541Z,95.29
2018-07-25T04:39:29.743Z,94.62
2018-07-25T04:41:58.996Z,93.83
2018-07-25T04:44:28.275Z,92.78
2018-07-25T04:46:57.511Z,93.67
2018-07-25T04:49:26.754Z,93.84
2018-07-25T04:51:56.012Z,94.33
2018-07-25T04:54:25.228Z,93.90
2018-07-25T04:56:54.477Z,94.72
2018-07-25T04:59:23.709Z,94.64
2018-07-25T05:01:53.016Z,93.71
2018-07-25T05:04:22.219Z,92.89
2018-07-25T05:06:51.434Z,86.15
2018-07-25T05:09:20.714Z,68.95
2018-07-25T05:11:49.986Z,55.94
2018-07-25T05:14:19.198Z,49.61
2018-07-25T05:16:48.475Z,46.21
2018-07-25T05:19:17.689Z,42.49
2018-07-25T05:21:47.201Z,41.88
2018-07-25T05:24:16.463Z,39.55
2018-07-25T05:26:45.794Z,39.36
2018-07-25T05:29:15.035Z,38.91
2018-07-25T05:31:44.351Z,36.18
2018-07-25T05:34:13.645Z,37.79
2018-07-25T05:36:44.148Z,35.64
2018-07-25T05:39:14.018Z,36.26
2018-07-25T05:41:43.626Z,36.84
2018-07-25T05:44:12.951Z,33.42
2018-07-25T05:46:42.464Z,33.30
2018-07-25T05:49:11.703Z,33.27
2018-07-25T05:51:40.978Z,31.67
2018-07-25T05:54:10.248Z,32.92
2018-07-25T05:56:39.551Z,31.49
2018-07-25T05:59:08.806Z,31.19
2018-07-25T06:01:38.054Z,31.06
2018-07-25T06:04:07.447Z,30.93
2018-07-25T06:06:36.691Z,29.73
2018-07-25T06:09:08.987Z,30.24
2018-07-25T06:11:38.413Z,30.26
2018-07-25T06:14:08.620Z,29.04
2018-07-25T06:16:37.969Z,29.58
2018-07-25T06:19:07.240Z,28.19
2018-07-25T06:21:36.525Z,26.66
2018-07-25T06:24:05.758Z,26.99
2018-07-25T06:26:34.989Z,27.09
2018-07-25T06:29:04.242Z,26.52
2018-07-25T06:31:33.475Z,31.80
2018-07-25T06:34:02.720Z,30.33
2018-07-25T06:36:31.950Z,28.07
2018-07-25T06:39:01.204Z,32.32
2018-07-25T06:41:30.479Z,36.35
2018-07-25T06:43:59.724Z,37.50
2018-07-25T06:46:28.949Z,33.74
2018-07-25T06:48:58.163Z,34.66
2018-07-25T06:51:27.455Z,32.64
2018-07-25T06:53:56.680Z,33.29
2018-07-25T06:56:25.930Z,33.27
2018-07-25T06:58:55.250Z,32.21
2018-07-25T07:01:24.626Z,28.29
2018-07-25T07:03:54.091Z,25.66
2018-07-25T07:06:23.332Z,24.14
2018-07-25T07:08:52.837Z,25.18
2018-07-25T07:11:22.192Z,21.48
2018-07-25T07:13:52.658Z,22.77
2018-07-25T07:16:21.911Z,24.79
2018-07-25T07:18:51.158Z,25.60
2018-07-25T07:21:20.449Z,22.47
2018-07-25T07:23:49.669Z,21.04
2018-07-25T07:26:18.874Z,27.58
2018-07-25T07:28:48.127Z,26.01
2018-07-25T07:31:17.373Z,25.48
2018-07-25T07:33:46.676Z,24.43
2018-07-25T07:36:15.938Z,24.31
2018-07-25T07:38:45.260Z,23.78
2018-07-25T07:41:14.506Z,24.85
2018-07-25T07:43:43.774Z,23.92
2018-07-25T07:46:13.018Z,20.99
2018-07-25T07:48:42.284Z,23.93
2018-07-25T07:51:11.588Z,22.66
2018-07-25T07:53:40.611Z,21.23
2018-07-25T07:56:09.869Z,25.27
2018-07-25T07:58:39.117Z,20.30
2018-07-25T08:01:08.422Z,20.88
2018-07-25T08:03:37.650Z,20.84
2018-07-25T08:06:06.976Z,18.71
2018-07-25T08:08:36.215Z,22.89
2018-07-25T08:11:05.452Z,24.99
2018-07-25T08:13:34.728Z,23.93
2018-07-25T08:16:03.773Z,23.02
2018-07-25T08:18:33.111Z,22.23
2018-07-25T08:21:33.015Z,24.48
2018-07-25T08:24:02.187Z,20.06
2018-07-25T08:26:36.031Z,21.56
2018-07-25T08:29:05.604Z,23.47
2018-07-25T08:31:34.842Z,22.30
2018-07-25T08:34:04.092Z,22.47
2018-07-25T08:36:33.341Z,22.13
2018-07-25T08:39:02.671Z,23.23
2018-07-25T08:41:31.963Z,20.84
2018-07-25T08:44:01.274Z,22.32
2018-07-25T08:46:30.558Z,22.96
2018-07-25T08:48:59.806Z,24.75
2018-07-25T08:51:29.060Z,25.86
2018-07-25T08:53:58.270Z,23.16
2018-07-25T08:56:27.624Z,25.37
2018-07-25T08:58:56.842Z,23.28
2018-07-25T09:01:26.083Z,21.43
2018-07-25T09:03:55.346Z,24.29
2018-07-25T09:06:24.628Z,23.01
2018-07-25T09:08:53.611Z,22.10
2018-07-25T09:11:28.304Z,22.00
2018-07-25T09:13:58.468Z,22.19
2018-07-25T09:16:27.710Z,24.78
2018-07-25T09:18:56.995Z,25.64
2018-07-25T09:21:26.263Z,23.08
2018-07-25T09:23:55.515Z,22.95
2018-07-25T09:26:24.830Z,20.39
2018-07-25T09:28:54.579Z,19.94
2018-07-25T09:31:24.013Z,21.47
2018-07-25T09:33:53.311Z,21.13
2018-07-25T09:36:22.511Z,21.72
2018-07-25T09:38:51.905Z,20.21
2018-07-25T09:41:21.115Z,20.81
2018-07-25T09:43:50.466Z,18.23
2018-07-25T09:46:19.767Z,18.69
2018-07-25T09:48:49.004Z,18.10
2018-07-25T09:51:18.370Z,21.12
2018-07-25T09:53:47.653Z,19.61
2018-07-25T09:56:16.979Z,20.20
2018-07-25T09:58:46.327Z,20.27
2018-07-25T10:01:15.636Z,22.01
2018-07-25T10:03:44.962Z,22.75
2018-07-25T10:06:14.270Z,20.67
2018-07-25T10:08:43.516Z,21.98
2018-07-25T10:11:12.809Z,23.03
2018-07-25T10:13:42.032Z,22.25
2018-07-25T10:16:11.256Z,21.52
2018-07-25T10:18:40.490Z,21.88
2018-07-25T10:21:09.785Z,22.04
2018-07-25T10:23:39.036Z,24.25
2018-07-25T10:26:09.806Z,23.85
2018-07-25T10:28:40.221Z,19.48
2018-07-25T10:31:09.639Z,22.27
2018-07-25T10:33:38.894Z,22.51
2018-07-25T10:36:08.122Z,24.64
2018-07-25T10:38:37.372Z,24.16
2018-07-25T10:41:06.591Z,22.31
2018-07-25T10:43:35.834Z,22.34
2018-07-25T10:46:05.103Z,24.06
2018-07-25T10:48:34.303Z,26.12
2018-07-25T10:51:03.567Z,24.10
2018-07-25T10:53:32.790Z,26.17
2018-07-25T10:56:02.165Z,30.99
2018-07-25T10:58:31.263Z,31.74
2018-07-25T11:01:00.513Z,31.43
2018-07-25T11:03:29.740Z,26.25
2018-07-25T11:05:58.979Z,22.07
2018-07-25T11:08:28.255Z,19.75
2018-07-25T11:10:57.539Z,20.12
2018-07-25T11:13:26.779Z,24.23
2018-07-25T11:15:56.015Z,23.99
2018-07-25T11:18:25.242Z,25.23
2018-07-25T11:20:54.577Z,24.93
2018-07-25T11:23:23.566Z,24.55
2018-07-25T11:25:53.151Z,22.54
2018-07-25T11:28:23.446Z,24.70
2018-07-25T11:30:52.857Z,20.19
2018-07-25T11:33:22.343Z,24.92
2018-07-25T11:35:51.967Z,25.91
2018-07-25T11:38:21.195Z,25.96
2018-07-25T11:40:50.500Z,25.17
2018-07-25T11:43:19.717Z,27.76
2018-07-25T11:45:48.984Z,26.37
2018-07-25T11:48:18.290Z,28.82
2018-07-25T11:50:47.598Z,30.24
2018-07-25T11:53:17.946Z,25.87
2018-07-25T11:55:47.286Z,25.76
2018-07-25T11:58:16.457Z,22.00
2018-07-25T12:00:45.723Z,25.66
2018-07-25T12:03:14.996Z,30.70
2018-07-25T12:05:44.242Z,32.61
2018-07-25T12:08:13.796Z,33.07
2018-07-25T12:10:43.285Z,32.28
2018-07-25T12:13:12.634Z,33.30
2018-07-25T12:15:41.947Z,31.17
2018-07-25T12:18:11.210Z,24.04
2018-07-25T12:20:40.716Z,22.66
2018-07-25T12:23:10.039Z,27.37
2018-07-25T12:25:39.292Z,27.11
2018-07-25T12:28:08.494Z,25.82
2018-07-25T12:30:37.757Z,28.44
2018-07-25T12:33:07.571Z,29.15
2018-07-25T12:35:36.766Z,29.25
2018-07-25T12:38:06.065Z,29.21
2018-07-25T12:40:36.522Z,33.66
2018-07-25T12:43:05.820Z,31.49
2018-07-25T12:45:35.066Z,30.67
2018-07-25T12:48:04.306Z,31.12
2018-07-25T12:50:33.519Z,27.07
2018-07-25T12:53:02.798Z,32.79
2018-07-25T12:55:32.044Z,31.36
2018-07-25T12:58:01.303Z,31.17
2018-07-25T13:00:30.603Z,35.61
2018-07-25T13:02:59.870Z,37.13
2018-07-25T13:05:29.154Z,38.01
2018-07-25T13:07:58.403Z,38.54
2018-07-25T13:10:27.714Z,43.65
2018-07-25T13:12:56.943Z,41.43
2018-07-25T13:15:26.150Z,42.03
2018-07-25T13:17:55.449Z,44.09
2018-07-25T13:20:24.672Z,43.89
2018-07-25T13:22:54.151Z,41.18
2018-07-25T13:25:23.314Z,45.90
2018-07-25T13:27:53.148Z,43.33
2018-07-25T13:30:22.380Z,44.11
2018-07-25T13:32:51.625Z,39.33
2018-07-25T13:35:20.843Z,36.20
2018-07-25T13:37:50.232Z,35.72
2018-07-25T13:40:19.509Z,36.88
2018-07-25T13:42:48.788Z,39.35
2018-07-25T13:45:18.015Z,40.52
2018-07-25T13:47:47.277Z,40.43
2018-07-25T13:50:16.563Z,38.20
2018-07-25T13:52:46.251Z,37.73
2018-07-25T13:55:15.519Z,37.19
2018-07-25T13:57:44.797Z,37.07
2018-07-25T14:00:14.187Z,34.81
2018-07-25T14:02:43.472Z,33.61
2018-07-25T14:05:12.752Z,33.87
2018-07-25T14:07:41.955Z,34.53
2018-07-25T14:10:11.566Z,34.53
2018-07-25T14:12:40.839Z,35.13
2018-07-25T14:15:10.064Z,34.44
2018-07-25T14:17:39.318Z,35.09
2018-07-25T14:20:08.547Z,35.28
2018-07-25T14:22:37.852Z,34.97
2018-07-25T14:25:06.957Z,32.95
2018-07-25T14:37:26.257Z,35.64
2018-07-25T14:42:31.743Z,33.86
2018-07-25T14:45:01.073Z,39.20
2018-07-25T14:47:30.379Z,31.86
2018-07-25T14:49:59.748Z,31.99
2018-07-25T14:52:29.183Z,32.72
2018-07-25T14:54:58.409Z,32.20
2018-07-25T14:57:27.723Z,32.23
2018-07-25T14:59:57.027Z,29.85
2018-07-25T15:02:26.542Z,33.57
2018-07-25T15:04:55.739Z,31.81
2018-07-25T15:07:25.047Z,31.58
2018-07-25T15:09:54.403Z,32.93
2018-07-25T15:12:29.023Z,31.89
2018-07-25T15:14:58.247Z,32.45
2018-07-25T15:17:27.538Z,30.36
2018-07-25T15:19:57.003Z,30.81
2018-07-25T15:22:26.255Z,30.69
2018-07-25T15:24:55.582Z,33.03
2018-07-25T15:27:24.889Z,30.71
2018-07-25T15:29:55.186Z,34.75
2018-07-25T15:32:24.532Z,34.99
2018-07-25T15:34:53.902Z,36.75
2018-07-25T15:37:23.249Z,39.45
2018-07-25T15:39:52.632Z,40.93
2018-07-25T15:42:21.962Z,41.74
2018-07-25T15:44:51.298Z,42.19
2018-07-25T15:47:20.588Z,43.09
2018-07-25T15:49:49.930Z,44.53
2018-07-25T15:52:19.264Z,45.73
2018-07-25T15:54:48.575Z,46.50
2018-07-25T15:57:17.846Z,46.70
2018-07-25T15:59:47.164Z,47.49
2018-07-25T16:02:16.569Z,47.99
2018-07-25T16:04:45.927Z,48.44
2018-07-25T16:07:15.325Z,48.08
2018-07-25T16:09:44.595Z,47.80
2018-07-25T16:12:13.932Z,47.91
2018-07-25T16:14:43.282Z,48.10
2018-07-25T16:17:12.694Z,48.00
2018-07-25T16:19:41.921Z,49.02
2018-07-25T16:22:11.460Z,49.59
2018-07-25T16:24:40.839Z,50.42
2018-07-25T16:27:10.230Z,50.62
2018-07-25T16:29:39.546Z,50.61
2018-07-25T16:32:08.986Z,50.70
2018-07-25T16:34:38.312Z,49.95
2018-07-25T16:37:07.602Z,51.46
2018-07-25T16:39:36.882Z,51.28
2018-07-25T16:42:06.136Z,51.17
2018-07-25T16:44:35.494Z,48.44
2018-07-25T16:47:04.993Z,49.22
2018-07-25T16:49:34.272Z,49.89
2018-07-25T16:52:03.860Z,49.93
2018-07-25T16:54:34.199Z,50.16
2018-07-25T16:57:03.537Z,50.42
2018-07-25T16:59:32.810Z,50.30
2018-07-25T17:02:02.106Z,48.88
2018-07-25T17:04:31.442Z,48.66
2018-07-25T17:07:02.009Z,49.66
2018-07-25T17:09:31.282Z,49.51
2018-07-25T17:12:00.554Z,48.54
2018-07-25T17:14:29.849Z,49.63
2018-07-25T17:16:59.149Z,50.09
2018-07-25T17:19:28.488Z,49.80
2018-07-25T17:21:57.836Z,50.83
2018-07-25T17:24:27.238Z,50.17
2018-07-25T17:26:56.635Z,50.87
2018-07-25T17:29:25.931Z,53.62
2018-07-25T17:31:55.214Z,54.33
2018-07-25T17:34:24.558Z,54.61
2018-07-25T17:36:53.858Z,55.11
2018-07-25T17:39:23.137Z,57.62
2018-07-25T17:41:52.439Z,55.72
2018-07-25T17:44:21.870Z,51.71
2018-07-25T17:46:51.314Z,50.20
2018-07-25T17:49:20.624Z,51.74
2018-07-25T17:51:49.919Z,52.29
2018-07-25T17:54:19.248Z,54.24
2018-07-25T17:56:48.632Z,54.30
2018-07-25T17:59:17.862Z,57.74
2018-07-25T18:01:47.382Z,61.24
2018-07-25T18:04:16.769Z,60.05
2018-07-25T18:06:46.154Z,57.16
2018-07-25T18:09:15.493Z,63.22
2018-07-25T18:11:44.816Z,63.87
2018-07-25T18:14:16.109Z,63.23
2018-07-25T18:16:45.918Z,66.92
2018-07-25T18:19:16.103Z,69.06
2018-07-25T18:21:45.390Z,74.36
2018-07-25T18:24:14.687Z,74.81
2018-07-25T18:26:44.016Z,71.67
2018-07-25T18:29:13.373Z,68.08
2018-07-25T18:31:42.615Z,70.25
2018-07-25T18:34:11.939Z,70.91
2018-07-25T18:36:41.202Z,70.31
2018-07-25T18:39:11.784Z,72.93
2018-07-25T18:41:41.539Z,70.17
2018-07-25T18:44:10.829Z,70.27
2018-07-25T18:46:44.164Z,69.28
2018-07-25T18:49:13.925Z,72.70
2018-07-25T18:51:43.308Z,71.51
2018-07-25T18:54:12.584Z,69.82
2018-07-25T18:56:41.893Z,67.92
2018-07-25T18:59:11.442Z,64.92
2018-07-25T19:01:40.754Z,67.17
2018-07-25T19:04:10.043Z,65.08
2018-07-25T19:06:39.402Z,66.40
2018-07-25T19:09:13.243Z,66.25
2018-07-25T19:11:42.613Z,70.86
2018-07-25T19:14:17.187Z,74.41
2018-07-25T19:16:46.540Z,72.07
2018-07-25T19:19:15.976Z,72.45
2018-07-25T19:21:45.300Z,76.28
2018-07-25T19:24:14.580Z,76.89
2018-07-25T19:26:43.929Z,77.82
2018-07-25T19:29:13.454Z,79.72
2018-07-25T19:31:42.711Z,83.19
2018-07-25T19:34:12.007Z,84.92
2018-07-25T19:36:41.255Z,87.15
2018-07-25T19:39:10.865Z,86.30
2018-07-25T19:41:40.174Z,83.16
2018-07-25T19:44:09.489Z,80.58
2018-07-25T19:46:38.754Z,78.87
2018-07-25T19:49:09.129Z,78.62
2018-07-25T19:51:38.104Z,76.84
2018-07-25T19:54:07.401Z,75.59
2018-07-25T19:56:36.653Z,74.59
2018-07-25T19:59:05.995Z,73.88
2018-07-25T20:01:35.305Z,75.10
2018-07-25T20:04:04.581Z,75.84
2018-07-25T20:06:33.885Z,77.34
2018-07-25T20:09:03.350Z,73.42
2018-07-25T20:11:32.640Z,72.02
2018-07-25T20:16:14.053Z,71.52
2018-07-25T20:18:43.288Z,72.58
2018-07-25T20:21:12.567Z,72.79
2018-07-25T20:23:41.915Z,73.20
2018-07-25T20:26:11.164Z,71.97
2018-07-25T20:28:40.527Z,73.09
2018-07-25T20:31:09.791Z,75.28
2018-07-25T20:33:39.089Z,76.71
2018-07-25T20:36:08.350Z,74.15
2018-07-25T20:38:37.607Z,71.86
2018-07-25T20:41:06.862Z,71.71
2018-07-25T20:43:36.126Z,70.78
2018-07-25T20:46:05.398Z,70.98
2018-07-25T20:48:34.779Z,72.52
2018-07-25T20:51:04.024Z,73.07
2018-07-25T20:53:33.324Z,73.35
2018-07-25T20:56:02.646Z,76.73
2018-07-25T20:58:31.932Z,78.58
2018-07-25T21:01:02.511Z,78.67
2018-07-25T21:03:31.784Z,79.87
2018-07-25T21:06:01.068Z,79.90
2018-07-25T21:08:30.310Z,81.16
2018-07-25T21:10:59.722Z,80.47
2018-07-25T21:13:29.008Z,80.10
2018-07-25T21:15:58.354Z,79.24
2018-07-25T21:18:27.566Z,78.50
2018-07-25T21:20:56.870Z,80.09
2018-07-25T21:23:26.177Z,80.30
2018-07-25T21:25:55.438Z,80.83
2018-07-25T21:28:24.768Z,83.93
2018-07-25T21:30:54.027Z,83.60
2018-07-25T21:33:23.302Z,82.57
2018-07-25T21:35:52.577Z,80.84
2018-07-25T21:38:21.896Z,80.98
2018-07-25T21:40:51.189Z,83.88
2018-07-25T21:43:20.450Z,85.14
2018-07-25T21:45:49.772Z,85.15
2018-07-25T21:48:19.122Z,85.92
2018-07-25T21:50:48.330Z,85.61
2018-07-25T21:53:17.620Z,86.84
2018-07-25T21:55:46.908Z,87.01
2018-07-25T21:58:16.582Z,84.97
2018-07-25T22:00:50.994Z,85.34
2018-07-25T22:03:20.235Z,88.35
2018-07-25T22:05:49.526Z,89.37
2018-07-25T22:08:18.761Z,89.78
2018-07-25T22:10:48.040Z,91.32
2018-07-25T22:13:17.369Z,91.36
2018-07-25T22:15:47.874Z,91.76
2018-07-25T22:18:17.152Z,91.51
2018-07-25T22:20:46.472Z,91.12
2018-07-25T22:23:15.737Z,88.90
2018-07-25T22:25:44.962Z,88.67
2018-07-25T22:28:14.273Z,87.51
2018-07-25T22:30:43.679Z,87.09
2018-07-25T22:33:12.971Z,86.82
2018-07-25T22:35:42.296Z,87.37
2018-07-25T22:38:11.598Z,86.83
2018-07-25T22:40:41.157Z,85.80
2018-07-25T22:43:10.401Z,85.44
2018-07-25T22:45:39.671Z,85.66
2018-07-25T22:48:09.179Z,84.89
2018-07-25T22:50:38.435Z,85.01
2018-07-25T22:53:07.839Z,84.89
2018-07-25T22:55:37.207Z,86.41
2018-07-25T22:58:06.859Z,86.56
2018-07-25T23:00:36.335Z,86.46
2018-07-25T23:03:05.688Z,88.29
2018-07-25T23:05:34.978Z,90.48
2018-07-25T23:08:04.618Z,90.80
2018-07-25T23:10:34.002Z,89.61
2018-07-25T23:13:03.275Z,90.20
2018-07-25T23:15:32.632Z,90.32
2018-07-25T23:18:01.966Z,90.94
2018-07-25T23:20:31.258Z,88.42
2018-07-25T23:23:01.321Z,87.61
2018-07-25T23:25:30.804Z,87.24
2018-07-25T23:28:00.646Z,89.70
2018-07-25T23:30:30.253Z,91.21
2018-07-25T23:33:00.586Z,91.41
2018-07-25T23:35:30.843Z,92.31
2018-07-25T23:38:00.937Z,93.05
2018-07-25T23:40:30.998Z,93.01
2018-07-25T23:43:00.921Z,93.39
2018-07-25T23:45:30.238Z,93.13
2018-07-25T23:47:59.492Z,93.28
2018-07-25T23:50:29.475Z,93.50
2018-07-25T23:53:00.487Z,94.42
2018-07-25T23:55:29.730Z,94.55
2018-07-25T23:57:58.984Z,94.52
